sensor_id;sensor_type;location;lat;lon;timestamp;temperature;humidity
10660;DHT22;5378;53.206;13.316;2024-01-27T00:00:33;5.70;99.90
10660;DHT22;5378;53.206;13.316;2024-01-27T00:03:32;5.70;99.90
10660;DHT22;5378;53.206;13.316;2024-01-27T00:06:30;5.60;99.90
10660;DHT22;5378;53.206;13.316;2024-01-27T00:09:20;5.60;99.90
10660;DHT22;5378;53.206;13.316;2024-01-27T00:12:12;5.70;99.90
10660;DHT22;5378;53.206;13.316;2024-01-27T00:15:08;5.80;99.90
10660;DHT22;5378;53.206;13.316;2024-01-27T00:17:59;5.80;99.90
10660;DHT22;5378;53.206;13.316;2024-01-27T00:20:53;5.80;99.90
10660;DHT22;5378;53.206;13.316;2024-01-27T00:23:53;5.80;99.90
10660;DHT22;5378;53.206;13.316;2024-01-27T00:26:44;5.70;99.90
10660;DHT22;5378;53.206;13.316;2024-01-27T00:29:36;5.60;99.90
10660;DHT22;5378;53.206;13.316;2024-01-27T00:32:26;5.50;99.90
10660;DHT22;5378;53.206;13.316;2024-01-27T00:35:21;5.50;99.90
10660;DHT22;5378;53.206;13.316;2024-01-27T00:38:10;5.50;99.90
10660;DHT22;5378;53.206;13.316;2024-01-27T00:41:02;5.40;99.90
10660;DHT22;5378;53.206;13.316;2024-01-27T00:43:51;5.40;99.90
10660;DHT22;5378;53.206;13.316;2024-01-27T00:46:42;5.30;99.90
10660;DHT22;5378;53.206;13.316;2024-01-27T00:49:37;5.30;99.90
10660;DHT22;5378;53.206;13.316;2024-01-27T00:52:30;5.30;99.90
10660;DHT22;5378;53.206;13.316;2024-01-27T00:55:18;5.30;99.90
10660;DHT22;5378;53.206;13.316;2024-01-27T00:58:07;5.20;99.90
10660;DHT22;5378;53.206;13.316;2024-01-27T01:01:01;5.20;99.90
10660;DHT22;5378;53.206;13.316;2024-01-27T01:03:50;5.30;99.90
10660;DHT22;5378;53.206;13.316;2024-01-27T01:06:41;5.30;99.90
10660;DHT22;5378;53.206;13.316;2024-01-27T01:09:30;5.30;99.90
10660;DHT22;5378;53.206;13.316;2024-01-27T01:12:22;5.30;99.90
10660;DHT22;5378;53.206;13.316;2024-01-27T01:15:12;5.30;99.90
10660;DHT22;5378;53.206;13.316;2024-01-27T01:18:03;5.30;99.90
10660;DHT22;5378;53.206;13.316;2024-01-27T01:20:52;5.30;99.90
10660;DHT22;5378;53.206;13.316;2024-01-27T01:23:53;5.30;99.90
10660;DHT22;5378;53.206;13.316;2024-01-27T01:26:47;5.20;99.90
10660;DHT22;5378;53.206;13.316;2024-01-27T01:29:36;5.20;99.90
10660;DHT22;5378;53.206;13.316;2024-01-27T01:32:27;5.30;99.90
10660;DHT22;5378;53.206;13.316;2024-01-27T01:35:17;5.30;99.90
10660;DHT22;5378;53.206;13.316;2024-01-27T01:38:06;5.30;99.90
10660;DHT22;5378;53.206;13.316;2024-01-27T01:40:55;5.20;99.90
10660;DHT22;5378;53.206;13.316;2024-01-27T01:43:49;5.10;99.90
10660;DHT22;5378;53.206;13.316;2024-01-27T01:46:41;5.20;99.90
10660;DHT22;5378;53.206;13.316;2024-01-27T01:49:34;5.20;99.90
10660;DHT22;5378;53.206;13.316;2024-01-27T01:52:24;5.20;99.90
10660;DHT22;5378;53.206;13.316;2024-01-27T01:55:14;5.10;99.90
10660;DHT22;5378;53.206;13.316;2024-01-27T01:58:06;5.20;99.90
10660;DHT22;5378;53.206;13.316;2024-01-27T02:01:03;5.10;99.90
10660;DHT22;5378;53.206;13.316;2024-01-27T02:03:53;5.10;99.90
10660;DHT22;5378;53.206;13.316;2024-01-27T02:06:44;5.20;99.90
10660;DHT22;5378;53.206;13.316;2024-01-27T02:09:32;5.20;99.90
10660;DHT22;5378;53.206;13.316;2024-01-27T02:12:38;5.40;99.90
10660;DHT22;5378;53.206;13.316;2024-01-27T02:15:32;5.30;99.90
10660;DHT22;5378;53.206;13.316;2024-01-27T02:18:22;5.20;99.90
10660;DHT22;5378;53.206;13.316;2024-01-27T02:21:15;5.20;99.90
10660;DHT22;5378;53.206;13.316;2024-01-27T02:24:13;5.20;99.90
10660;DHT22;5378;53.206;13.316;2024-01-27T02:27:01;5.20;99.90
10660;DHT22;5378;53.206;13.316;2024-01-27T02:29:50;5.10;99.90
10660;DHT22;5378;53.206;13.316;2024-01-27T02:32:43;5.00;99.90
10660;DHT22;5378;53.206;13.316;2024-01-27T02:35:32;5.10;99.90
10660;DHT22;5378;53.206;13.316;2024-01-27T02:38:21;5.10;99.90
10660;DHT22;5378;53.206;13.316;2024-01-27T02:41:11;5.10;99.90
10660;DHT22;5378;53.206;13.316;2024-01-27T02:44:04;5.20;99.90
10660;DHT22;5378;53.206;13.316;2024-01-27T02:46:58;5.40;99.90
10660;DHT22;5378;53.206;13.316;2024-01-27T02:49:53;5.50;99.90
10660;DHT22;5378;53.206;13.316;2024-01-27T02:52:42;5.50;99.90
10660;DHT22;5378;53.206;13.316;2024-01-27T02:55:34;5.40;99.90
10660;DHT22;5378;53.206;13.316;2024-01-27T02:58:31;5.40;99.90
10660;DHT22;5378;53.206;13.316;2024-01-27T03:01:23;5.40;99.90
10660;DHT22;5378;53.206;13.316;2024-01-27T03:04:15;5.40;99.90
10660;DHT22;5378;53.206;13.316;2024-01-27T03:07:07;5.40;99.90
10660;DHT22;5378;53.206;13.316;2024-01-27T03:09:55;5.40;99.90
10660;DHT22;5378;53.206;13.316;2024-01-27T03:12:44;5.30;99.90
10660;DHT22;5378;53.206;13.316;2024-01-27T03:15:34;5.20;99.90
10660;DHT22;5378;53.206;13.316;2024-01-27T03:18:26;5.20;99.90
10660;DHT22;5378;53.206;13.316;2024-01-27T03:21:15;5.10;99.90
10660;DHT22;5378;53.206;13.316;2024-01-27T03:24:07;5.00;99.90
10660;DHT22;5378;53.206;13.316;2024-01-27T03:26:58;5.00;99.90
10660;DHT22;5378;53.206;13.316;2024-01-27T03:29:47;5.10;99.90
10660;DHT22;5378;53.206;13.316;2024-01-27T03:32:39;5.20;99.90
10660;DHT22;5378;53.206;13.316;2024-01-27T03:35:28;5.30;99.90
10660;DHT22;5378;53.206;13.316;2024-01-27T03:38:20;5.40;99.90
10660;DHT22;5378;53.206;13.316;2024-01-27T03:41:12;5.50;99.90
10660;DHT22;5378;53.206;13.316;2024-01-27T03:44:00;5.50;99.90
10660;DHT22;5378;53.206;13.316;2024-01-27T03:46:52;5.40;99.90
10660;DHT22;5378;53.206;13.316;2024-01-27T03:49:44;5.40;99.90
10660;DHT22;5378;53.206;13.316;2024-01-27T03:52:33;5.40;99.90
10660;DHT22;5378;53.206;13.316;2024-01-27T03:55:25;5.50;99.90
10660;DHT22;5378;53.206;13.316;2024-01-27T03:58:13;5.50;99.90
10660;DHT22;5378;53.206;13.316;2024-01-27T04:01:05;5.50;99.90
10660;DHT22;5378;53.206;13.316;2024-01-27T04:03:53;5.40;99.90
10660;DHT22;5378;53.206;13.316;2024-01-27T04:06:46;5.40;99.90
10660;DHT22;5378;53.206;13.316;2024-01-27T04:09:47;5.30;99.90
10660;DHT22;5378;53.206;13.316;2024-01-27T04:12:37;5.40;99.90
10660;DHT22;5378;53.206;13.316;2024-01-27T04:15:25;5.30;99.90
10660;DHT22;5378;53.206;13.316;2024-01-27T04:18:14;5.40;99.90
10660;DHT22;5378;53.206;13.316;2024-01-27T04:21:03;5.30;99.90
10660;DHT22;5378;53.206;13.316;2024-01-27T04:23:53;5.30;99.90
10660;DHT22;5378;53.206;13.316;2024-01-27T04:26:45;5.40;99.90
10660;DHT22;5378;53.206;13.316;2024-01-27T04:29:37;5.30;99.90
10660;DHT22;5378;53.206;13.316;2024-01-27T04:32:36;5.40;99.90
10660;DHT22;5378;53.206;13.316;2024-01-27T04:35:27;5.30;99.90
10660;DHT22;5378;53.206;13.316;2024-01-27T04:38:21;5.20;99.90
10660;DHT22;5378;53.206;13.316;2024-01-27T04:41:13;5.30;99.90
10660;DHT22;5378;53.206;13.316;2024-01-27T04:44:02;5.40;99.90
10660;DHT22;5378;53.206;13.316;2024-01-27T04:46:50;5.40;99.90
10660;DHT22;5378;53.206;13.316;2024-01-27T04:49:39;5.40;99.90
10660;DHT22;5378;53.206;13.316;2024-01-27T04:52:41;5.50;99.90
10660;DHT22;5378;53.206;13.316;2024-01-27T04:55:29;5.60;99.90
10660;DHT22;5378;53.206;13.316;2024-01-27T04:58:20;5.60;99.90
10660;DHT22;5378;53.206;13.316;2024-01-27T05:01:10;5.60;99.90
10660;DHT22;5378;53.206;13.316;2024-01-27T05:04:04;5.60;99.90
10660;DHT22;5378;53.206;13.316;2024-01-27T05:06:54;5.70;99.90
10660;DHT22;5378;53.206;13.316;2024-01-27T05:09:42;5.70;99.90
10660;DHT22;5378;53.206;13.316;2024-01-27T05:12:31;5.70;99.90
10660;DHT22;5378;53.206;13.316;2024-01-27T05:15:25;5.60;99.90
10660;DHT22;5378;53.206;13.316;2024-01-27T05:18:25;5.80;99.90
10660;DHT22;5378;53.206;13.316;2024-01-27T05:21:16;5.60;99.90
10660;DHT22;5378;53.206;13.316;2024-01-27T05:24:05;5.70;99.90
10660;DHT22;5378;53.206;13.316;2024-01-27T05:26:54;5.80;99.90
10660;DHT22;5378;53.206;13.316;2024-01-27T05:29:50;5.90;99.90
10660;DHT22;5378;53.206;13.316;2024-01-27T05:32:41;5.90;99.90
10660;DHT22;5378;53.206;13.316;2024-01-27T05:35:30;6.00;99.90
10660;DHT22;5378;53.206;13.316;2024-01-27T05:38:21;5.90;99.90
10660;DHT22;5378;53.206;13.316;2024-01-27T05:41:19;5.90;99.90
10660;DHT22;5378;53.206;13.316;2024-01-27T05:44:11;6.00;99.90
10660;DHT22;5378;53.206;13.316;2024-01-27T05:47:03;6.00;99.90
10660;DHT22;5378;53.206;13.316;2024-01-27T05:50:01;6.00;99.90
10660;DHT22;5378;53.206;13.316;2024-01-27T05:52:53;6.20;99.90
10660;DHT22;5378;53.206;13.316;2024-01-27T05:55:49;6.20;99.90
10660;DHT22;5378;53.206;13.316;2024-01-27T05:58:41;6.20;99.90
10660;DHT22;5378;53.206;13.316;2024-01-27T06:01:31;6.10;99.90
10660;DHT22;5378;53.206;13.316;2024-01-27T06:04:23;6.20;99.90
10660;DHT22;5378;53.206;13.316;2024-01-27T06:07:24;6.20;99.90
10660;DHT22;5378;53.206;13.316;2024-01-27T06:10:18;6.20;99.90
10660;DHT22;5378;53.206;13.316;2024-01-27T06:13:16;6.30;99.90
10660;DHT22;5378;53.206;13.316;2024-01-27T06:16:07;6.40;99.90
10660;DHT22;5378;53.206;13.316;2024-01-27T06:19:00;6.40;99.90
10660;DHT22;5378;53.206;13.316;2024-01-27T06:21:50;6.30;99.90
10660;DHT22;5378;53.206;13.316;2024-01-27T06:24:44;6.40;99.90
10660;DHT22;5378;53.206;13.316;2024-01-27T06:27:33;6.50;99.90
10660;DHT22;5378;53.206;13.316;2024-01-27T06:30:24;6.50;99.90
10660;DHT22;5378;53.206;13.316;2024-01-27T06:33:14;6.40;99.90
10660;DHT22;5378;53.206;13.316;2024-01-27T06:36:05;6.40;99.90
10660;DHT22;5378;53.206;13.316;2024-01-27T06:38:57;6.40;99.90
10660;DHT22;5378;53.206;13.316;2024-01-27T06:41:55;6.40;99.90
10660;DHT22;5378;53.206;13.316;2024-01-27T06:44:47;6.40;99.90
10660;DHT22;5378;53.206;13.316;2024-01-27T06:47:41;6.50;99.90
10660;DHT22;5378;53.206;13.316;2024-01-27T06:50:34;6.50;99.90
10660;DHT22;5378;53.206;13.316;2024-01-27T06:53:23;6.50;99.90
10660;DHT22;5378;53.206;13.316;2024-01-27T06:56:12;6.50;99.90
10660;DHT22;5378;53.206;13.316;2024-01-27T06:59:10;6.50;99.90
10660;DHT22;5378;53.206;13.316;2024-01-27T07:02:00;6.50;99.90
10660;DHT22;5378;53.206;13.316;2024-01-27T07:04:50;6.50;99.90
10660;DHT22;5378;53.206;13.316;2024-01-27T07:07:39;6.50;99.90
10660;DHT22;5378;53.206;13.316;2024-01-27T07:10:27;6.60;99.90
10660;DHT22;5378;53.206;13.316;2024-01-27T07:13:22;6.60;99.90
10660;DHT22;5378;53.206;13.316;2024-01-27T07:16:26;6.70;99.90
10660;DHT22;5378;53.206;13.316;2024-01-27T07:19:18;6.70;99.90
10660;DHT22;5378;53.206;13.316;2024-01-27T07:22:06;6.80;99.90
10660;DHT22;5378;53.206;13.316;2024-01-27T07:24:59;6.70;99.90
10660;DHT22;5378;53.206;13.316;2024-01-27T07:27:47;6.70;99.90
10660;DHT22;5378;53.206;13.316;2024-01-27T07:30:36;6.70;99.90
10660;DHT22;5378;53.206;13.316;2024-01-27T07:33:30;6.60;99.90
10660;DHT22;5378;53.206;13.316;2024-01-27T07:36:21;6.70;99.90
10660;DHT22;5378;53.206;13.316;2024-01-27T07:39:10;6.70;99.90
10660;DHT22;5378;53.206;13.316;2024-01-27T07:41:59;6.60;99.90
10660;DHT22;5378;53.206;13.316;2024-01-27T07:44:49;6.70;99.90
10660;DHT22;5378;53.206;13.316;2024-01-27T07:47:37;6.80;99.90
10660;DHT22;5378;53.206;13.316;2024-01-27T07:50:31;6.80;99.90
10660;DHT22;5378;53.206;13.316;2024-01-27T07:53:20;6.80;99.90
10660;DHT22;5378;53.206;13.316;2024-01-27T07:56:12;6.80;99.90
10660;DHT22;5378;53.206;13.316;2024-01-27T07:59:02;6.90;99.90
10660;DHT22;5378;53.206;13.316;2024-01-27T08:02:01;6.90;99.90
10660;DHT22;5378;53.206;13.316;2024-01-27T08:04:49;6.90;99.90
10660;DHT22;5378;53.206;13.316;2024-01-27T08:07:39;7.00;99.90
10660;DHT22;5378;53.206;13.316;2024-01-27T08:10:31;7.10;99.90
10660;DHT22;5378;53.206;13.316;2024-01-27T08:13:24;7.10;99.90
10660;DHT22;5378;53.206;13.316;2024-01-27T08:16:15;7.20;99.90
10660;DHT22;5378;53.206;13.316;2024-01-27T08:19:03;7.20;99.90
10660;DHT22;5378;53.206;13.316;2024-01-27T08:21:52;7.20;99.90
10660;DHT22;5378;53.206;13.316;2024-01-27T08:24:48;7.20;99.90
10660;DHT22;5378;53.206;13.316;2024-01-27T08:27:37;7.30;99.90
10660;DHT22;5378;53.206;13.316;2024-01-27T08:30:26;7.50;99.90
10660;DHT22;5378;53.206;13.316;2024-01-27T08:33:21;7.40;99.90
10660;DHT22;5378;53.206;13.316;2024-01-27T08:36:20;7.50;99.90
10660;DHT22;5378;53.206;13.316;2024-01-27T08:39:26;7.50;99.90
10660;DHT22;5378;53.206;13.316;2024-01-27T08:42:32;7.50;99.90
10660;DHT22;5378;53.206;13.316;2024-01-27T08:45:32;7.40;99.90
10660;DHT22;5378;53.206;13.316;2024-01-27T08:48:26;7.50;99.90
10660;DHT22;5378;53.206;13.316;2024-01-27T08:51:32;7.50;99.90
10660;DHT22;5378;53.206;13.316;2024-01-27T08:54:33;7.60;99.90
10660;DHT22;5378;53.206;13.316;2024-01-27T08:57:36;7.60;99.90
10660;DHT22;5378;53.206;13.316;2024-01-27T09:00:30;7.70;99.90
10660;DHT22;5378;53.206;13.316;2024-01-27T09:03:31;7.60;99.90
10660;DHT22;5378;53.206;13.316;2024-01-27T09:06:31;7.70;99.90
10660;DHT22;5378;53.206;13.316;2024-01-27T09:09:26;7.70;99.90
10660;DHT22;5378;53.206;13.316;2024-01-27T09:12:19;7.60;99.90
10660;DHT22;5378;53.206;13.316;2024-01-27T09:15:18;7.60;99.90
10660;DHT22;5378;53.206;13.316;2024-01-27T09:18:08;7.70;99.90
10660;DHT22;5378;53.206;13.316;2024-01-27T09:21:09;7.60;99.90
10660;DHT22;5378;53.206;13.316;2024-01-27T09:24:18;7.70;99.90
10660;DHT22;5378;53.206;13.316;2024-01-27T09:27:07;7.60;99.90
10660;DHT22;5378;53.206;13.316;2024-01-27T09:30:00;7.70;99.90
10660;DHT22;5378;53.206;13.316;2024-01-27T09:32:50;7.80;99.90
10660;DHT22;5378;53.206;13.316;2024-01-27T09:35:46;7.80;99.90
10660;DHT22;5378;53.206;13.316;2024-01-27T09:38:40;7.80;99.90
10660;DHT22;5378;53.206;13.316;2024-01-27T09:41:32;7.80;99.90
10660;DHT22;5378;53.206;13.316;2024-01-27T09:44:32;7.80;99.90
10660;DHT22;5378;53.206;13.316;2024-01-27T09:47:23;7.80;99.90
10660;DHT22;5378;53.206;13.316;2024-01-27T09:50:19;8.00;99.90
10660;DHT22;5378;53.206;13.316;2024-01-27T09:53:16;8.10;99.90
10660;DHT22;5378;53.206;13.316;2024-01-27T09:56:11;8.20;99.90
10660;DHT22;5378;53.206;13.316;2024-01-27T09:59:14;8.20;99.90
10660;DHT22;5378;53.206;13.316;2024-01-27T10:02:09;8.30;99.90
10660;DHT22;5378;53.206;13.316;2024-01-27T10:05:22;8.20;99.90
10660;DHT22;5378;53.206;13.316;2024-01-27T10:08:19;8.30;99.90
10660;DHT22;5378;53.206;13.316;2024-01-27T10:11:33;8.30;99.90
10660;DHT22;5378;53.206;13.316;2024-01-27T10:14:24;8.20;99.90
10660;DHT22;5378;53.206;13.316;2024-01-27T10:17:23;8.20;99.90
10660;DHT22;5378;53.206;13.316;2024-01-27T10:20:13;8.30;99.90
10660;DHT22;5378;53.206;13.316;2024-01-27T10:23:12;8.30;99.90
10660;DHT22;5378;53.206;13.316;2024-01-27T10:26:04;8.20;99.90
10660;DHT22;5378;53.206;13.316;2024-01-27T10:28:54;7.90;99.90
10660;DHT22;5378;53.206;13.316;2024-01-27T10:31:50;8.00;99.90
10660;DHT22;5378;53.206;13.316;2024-01-27T10:34:40;8.00;99.90
10660;DHT22;5378;53.206;13.316;2024-01-27T10:37:31;8.00;99.90
10660;DHT22;5378;53.206;13.316;2024-01-27T10:40:24;8.20;99.90
10660;DHT22;5378;53.206;13.316;2024-01-27T10:43:17;8.30;99.90
10660;DHT22;5378;53.206;13.316;2024-01-27T10:46:08;8.40;99.90
10660;DHT22;5378;53.206;13.316;2024-01-27T10:48:56;8.60;99.90
10660;DHT22;5378;53.206;13.316;2024-01-27T10:51:53;8.60;99.90
10660;DHT22;5378;53.206;13.316;2024-01-27T10:54:43;8.30;99.90
10660;DHT22;5378;53.206;13.316;2024-01-27T10:57:35;8.40;99.90
10660;DHT22;5378;53.206;13.316;2024-01-27T11:00:25;8.40;99.90
10660;DHT22;5378;53.206;13.316;2024-01-27T11:03:14;8.60;99.90
10660;DHT22;5378;53.206;13.316;2024-01-27T11:06:05;8.60;99.90
10660;DHT22;5378;53.206;13.316;2024-01-27T11:09:00;8.60;99.90
10660;DHT22;5378;53.206;13.316;2024-01-27T11:11:50;8.60;99.90
10660;DHT22;5378;53.206;13.316;2024-01-27T11:14:43;8.70;99.90
10660;DHT22;5378;53.206;13.316;2024-01-27T11:17:39;8.60;99.90
10660;DHT22;5378;53.206;13.316;2024-01-27T11:20:31;8.70;99.90
10660;DHT22;5378;53.206;13.316;2024-01-27T11:23:31;8.70;99.90
10660;DHT22;5378;53.206;13.316;2024-01-27T11:26:21;8.70;99.90
10660;DHT22;5378;53.206;13.316;2024-01-27T11:29:16;8.60;99.90
10660;DHT22;5378;53.206;13.316;2024-01-27T11:32:21;8.70;99.90
10660;DHT22;5378;53.206;13.316;2024-01-27T11:35:27;8.70;99.90
10660;DHT22;5378;53.206;13.316;2024-01-27T11:38:15;8.80;99.90
10660;DHT22;5378;53.206;13.316;2024-01-27T11:41:10;8.60;99.90
10660;DHT22;5378;53.206;13.316;2024-01-27T11:43:59;8.60;99.90
10660;DHT22;5378;53.206;13.316;2024-01-27T11:46:49;8.60;99.90
10660;DHT22;5378;53.206;13.316;2024-01-27T11:49:51;8.60;99.90
10660;DHT22;5378;53.206;13.316;2024-01-27T11:52:41;8.70;99.90
10660;DHT22;5378;53.206;13.316;2024-01-27T11:55:30;8.70;99.90
10660;DHT22;5378;53.206;13.316;2024-01-27T11:58:20;8.50;99.90
10660;DHT22;5378;53.206;13.316;2024-01-27T12:01:11;8.60;99.90
10660;DHT22;5378;53.206;13.316;2024-01-27T12:04:00;8.60;99.90
10660;DHT22;5378;53.206;13.316;2024-01-27T12:06:50;8.70;99.90
10660;DHT22;5378;53.206;13.316;2024-01-27T12:09:44;8.70;99.90
10660;DHT22;5378;53.206;13.316;2024-01-27T12:12:33;8.70;99.90
10660;DHT22;5378;53.206;13.316;2024-01-27T12:15:25;8.70;99.90
10660;DHT22;5378;53.206;13.316;2024-01-27T12:18:18;8.70;99.90
10660;DHT22;5378;53.206;13.316;2024-01-27T12:21:10;8.70;99.90
10660;DHT22;5378;53.206;13.316;2024-01-27T12:24:15;8.80;99.90
10660;DHT22;5378;53.206;13.316;2024-01-27T12:27:05;8.80;99.90
10660;DHT22;5378;53.206;13.316;2024-01-27T12:29:56;8.90;99.90
10660;DHT22;5378;53.206;13.316;2024-01-27T12:32:45;8.90;99.90
10660;DHT22;5378;53.206;13.316;2024-01-27T12:35:38;8.80;99.90
10660;DHT22;5378;53.206;13.316;2024-01-27T12:38:27;8.90;99.90
10660;DHT22;5378;53.206;13.316;2024-01-27T12:41:17;9.00;99.90
10660;DHT22;5378;53.206;13.316;2024-01-27T12:44:18;9.00;99.90
10660;DHT22;5378;53.206;13.316;2024-01-27T12:47:24;9.00;99.90
10660;DHT22;5378;53.206;13.316;2024-01-27T12:50:17;9.00;99.90
10660;DHT22;5378;53.206;13.316;2024-01-27T12:53:10;9.10;99.90
10660;DHT22;5378;53.206;13.316;2024-01-27T12:55:59;9.10;99.90
10660;DHT22;5378;53.206;13.316;2024-01-27T12:58:50;9.10;99.90
10660;DHT22;5378;53.206;13.316;2024-01-27T13:01:42;9.10;99.90
10660;DHT22;5378;53.206;13.316;2024-01-27T13:04:30;9.10;99.90
10660;DHT22;5378;53.206;13.316;2024-01-27T13:07:29;9.10;99.90
10660;DHT22;5378;53.206;13.316;2024-01-27T13:10:20;8.90;99.90
10660;DHT22;5378;53.206;13.316;2024-01-27T13:13:10;8.70;99.90
10660;DHT22;5378;53.206;13.316;2024-01-27T13:16:00;8.70;99.90
10660;DHT22;5378;53.206;13.316;2024-01-27T13:18:49;8.60;99.90
10660;DHT22;5378;53.206;13.316;2024-01-27T13:21:45;8.60;99.90
10660;DHT22;5378;53.206;13.316;2024-01-27T13:24:40;8.50;99.90
10660;DHT22;5378;53.206;13.316;2024-01-27T13:27:37;8.40;99.90
10660;DHT22;5378;53.206;13.316;2024-01-27T13:30:28;8.20;99.90
10660;DHT22;5378;53.206;13.316;2024-01-27T13:33:21;8.10;99.90
10660;DHT22;5378;53.206;13.316;2024-01-27T13:36:11;8.20;99.90
10660;DHT22;5378;53.206;13.316;2024-01-27T13:39:03;8.30;99.90
10660;DHT22;5378;53.206;13.316;2024-01-27T13:41:56;8.30;99.90
10660;DHT22;5378;53.206;13.316;2024-01-27T13:44:50;8.30;99.90
10660;DHT22;5378;53.206;13.316;2024-01-27T13:47:42;8.30;99.90
10660;DHT22;5378;53.206;13.316;2024-01-27T13:50:36;8.10;99.90
10660;DHT22;5378;53.206;13.316;2024-01-27T13:53:27;8.10;99.90
10660;DHT22;5378;53.206;13.316;2024-01-27T13:56:17;7.90;99.90
10660;DHT22;5378;53.206;13.316;2024-01-27T13:59:12;7.90;99.90
10660;DHT22;5378;53.206;13.316;2024-01-27T14:02:07;7.90;99.90
10660;DHT22;5378;53.206;13.316;2024-01-27T14:04:57;7.80;99.90
10660;DHT22;5378;53.206;13.316;2024-01-27T14:07:49;7.80;99.90
10660;DHT22;5378;53.206;13.316;2024-01-27T14:10:40;7.80;99.90
10660;DHT22;5378;53.206;13.316;2024-01-27T14:13:40;7.80;99.90
10660;DHT22;5378;53.206;13.316;2024-01-27T14:16:33;7.90;99.90
10660;DHT22;5378;53.206;13.316;2024-01-27T14:19:27;7.90;99.90
10660;DHT22;5378;53.206;13.316;2024-01-27T14:22:29;8.00;99.90
10660;DHT22;5378;53.206;13.316;2024-01-27T14:25:29;8.10;99.90
10660;DHT22;5378;53.206;13.316;2024-01-27T14:28:21;8.00;99.90
10660;DHT22;5378;53.206;13.316;2024-01-27T14:31:12;8.00;99.90
10660;DHT22;5378;53.206;13.316;2024-01-27T14:34:09;8.10;99.90
10660;DHT22;5378;53.206;13.316;2024-01-27T14:37:06;8.10;99.90
10660;DHT22;5378;53.206;13.316;2024-01-27T14:39:56;8.10;99.90
10660;DHT22;5378;53.206;13.316;2024-01-27T14:42:49;8.20;99.90
10660;DHT22;5378;53.206;13.316;2024-01-27T14:45:44;8.20;99.90
10660;DHT22;5378;53.206;13.316;2024-01-27T14:48:36;8.20;99.90
10660;DHT22;5378;53.206;13.316;2024-01-27T14:51:26;8.10;99.90
10660;DHT22;5378;53.206;13.316;2024-01-27T14:54:19;8.10;99.90
10660;DHT22;5378;53.206;13.316;2024-01-27T14:57:11;8.00;99.90
10660;DHT22;5378;53.206;13.316;2024-01-27T15:00:08;7.90;99.90
10660;DHT22;5378;53.206;13.316;2024-01-27T15:02:57;7.80;99.90
10660;DHT22;5378;53.206;13.316;2024-01-27T15:05:51;7.70;99.90
10660;DHT22;5378;53.206;13.316;2024-01-27T15:08:45;7.60;99.90
10660;DHT22;5378;53.206;13.316;2024-01-27T15:11:34;7.40;99.90
10660;DHT22;5378;53.206;13.316;2024-01-27T15:14:25;7.30;99.90
10660;DHT22;5378;53.206;13.316;2024-01-27T15:17:20;7.30;99.90
10660;DHT22;5378;53.206;13.316;2024-01-27T15:20:11;7.20;99.90
10660;DHT22;5378;53.206;13.316;2024-01-27T15:23:06;7.00;99.90
10660;DHT22;5378;53.206;13.316;2024-01-27T15:25:58;7.00;99.90
10660;DHT22;5378;53.206;13.316;2024-01-27T15:28:51;6.80;99.90
10660;DHT22;5378;53.206;13.316;2024-01-27T15:31:41;6.70;99.90
10660;DHT22;5378;53.206;13.316;2024-01-27T15:34:32;6.70;99.90
10660;DHT22;5378;53.206;13.316;2024-01-27T15:37:31;6.60;99.90
10660;DHT22;5378;53.206;13.316;2024-01-27T15:40:20;6.40;99.90
10660;DHT22;5378;53.206;13.316;2024-01-27T15:43:13;6.40;99.90
10660;DHT22;5378;53.206;13.316;2024-01-27T15:46:04;6.30;99.90
10660;DHT22;5378;53.206;13.316;2024-01-27T15:49:03;6.30;99.90
10660;DHT22;5378;53.206;13.316;2024-01-27T15:51:59;6.10;99.90
10660;DHT22;5378;53.206;13.316;2024-01-27T15:54:54;6.10;99.90
10660;DHT22;5378;53.206;13.316;2024-01-27T15:57:58;6.00;99.90
10660;DHT22;5378;53.206;13.316;2024-01-27T16:00:55;5.90;99.90
10660;DHT22;5378;53.206;13.316;2024-01-27T16:03:54;5.80;99.90
10660;DHT22;5378;53.206;13.316;2024-01-27T16:06:54;5.80;99.90
10660;DHT22;5378;53.206;13.316;2024-01-27T16:09:47;5.80;99.90
10660;DHT22;5378;53.206;13.316;2024-01-27T16:12:40;5.70;99.90
10660;DHT22;5378;53.206;13.316;2024-01-27T16:15:33;5.70;99.90
10660;DHT22;5378;53.206;13.316;2024-01-27T16:18:26;5.80;99.90
10660;DHT22;5378;53.206;13.316;2024-01-27T16:21:23;5.80;99.90
10660;DHT22;5378;53.206;13.316;2024-01-27T16:24:14;5.80;99.90
10660;DHT22;5378;53.206;13.316;2024-01-27T16:27:09;5.80;99.90
10660;DHT22;5378;53.206;13.316;2024-01-27T16:30:02;5.70;99.90
10660;DHT22;5378;53.206;13.316;2024-01-27T16:32:53;5.60;99.90
10660;DHT22;5378;53.206;13.316;2024-01-27T16:35:42;5.60;99.90
10660;DHT22;5378;53.206;13.316;2024-01-27T16:38:33;5.50;99.90
10660;DHT22;5378;53.206;13.316;2024-01-27T16:41:22;5.40;99.90
10660;DHT22;5378;53.206;13.316;2024-01-27T16:44:14;5.30;99.90
10660;DHT22;5378;53.206;13.316;2024-01-27T16:47:07;5.20;99.90
10660;DHT22;5378;53.206;13.316;2024-01-27T16:50:00;5.00;99.90
10660;DHT22;5378;53.206;13.316;2024-01-27T16:52:50;4.90;99.90
10660;DHT22;5378;53.206;13.316;2024-01-27T16:55:48;4.80;99.90
10660;DHT22;5378;53.206;13.316;2024-01-27T16:58:37;4.70;99.90
10660;DHT22;5378;53.206;13.316;2024-01-27T17:01:28;4.80;99.90
10660;DHT22;5378;53.206;13.316;2024-01-27T17:04:16;4.70;99.90
10660;DHT22;5378;53.206;13.316;2024-01-27T17:07:13;4.60;99.90
10660;DHT22;5378;53.206;13.316;2024-01-27T17:10:03;4.40;99.90
10660;DHT22;5378;53.206;13.316;2024-01-27T17:12:54;4.30;99.90
10660;DHT22;5378;53.206;13.316;2024-01-27T17:15:47;4.20;99.90
10660;DHT22;5378;53.206;13.316;2024-01-27T17:18:46;4.10;99.90
10660;DHT22;5378;53.206;13.316;2024-01-27T17:21:35;4.00;99.90
10660;DHT22;5378;53.206;13.316;2024-01-27T17:24:30;4.00;99.90
10660;DHT22;5378;53.206;13.316;2024-01-27T17:27:32;4.00;99.90
10660;DHT22;5378;53.206;13.316;2024-01-27T17:30:24;3.90;99.90
10660;DHT22;5378;53.206;13.316;2024-01-27T17:33:14;3.90;99.90
10660;DHT22;5378;53.206;13.316;2024-01-27T17:36:06;3.90;99.90
10660;DHT22;5378;53.206;13.316;2024-01-27T17:38:54;3.90;99.90
10660;DHT22;5378;53.206;13.316;2024-01-27T17:41:48;3.80;99.90
10660;DHT22;5378;53.206;13.316;2024-01-27T17:44:39;3.70;99.90
10660;DHT22;5378;53.206;13.316;2024-01-27T17:47:28;3.60;99.90
10660;DHT22;5378;53.206;13.316;2024-01-27T17:50:19;3.70;99.90
10660;DHT22;5378;53.206;13.316;2024-01-27T17:53:10;3.60;99.90
10660;DHT22;5378;53.206;13.316;2024-01-27T17:56:08;3.60;99.90
10660;DHT22;5378;53.206;13.316;2024-01-27T17:59:04;3.60;99.90
10660;DHT22;5378;53.206;13.316;2024-01-27T18:02:04;3.60;99.90
10660;DHT22;5378;53.206;13.316;2024-01-27T18:04:57;3.50;99.90
10660;DHT22;5378;53.206;13.316;2024-01-27T18:07:52;3.50;99.90
10660;DHT22;5378;53.206;13.316;2024-01-27T18:10:42;3.50;99.90
10660;DHT22;5378;53.206;13.316;2024-01-27T18:13:39;3.50;99.90
10660;DHT22;5378;53.206;13.316;2024-01-27T18:16:36;3.50;99.90
10660;DHT22;5378;53.206;13.316;2024-01-27T18:19:24;3.50;99.90
10660;DHT22;5378;53.206;13.316;2024-01-27T18:22:16;3.50;99.90
10660;DHT22;5378;53.206;13.316;2024-01-27T18:25:13;3.60;99.90
10660;DHT22;5378;53.206;13.316;2024-01-27T18:28:17;3.70;99.90